Kamikawa Maru — JG5687 — position and weather

sailwx.info

Track history (hours):
 
Tides and Currents Weather Stations Pressure Air Temp Water Temp Dewpoint Dewpoint Depression Visibility Wind Speed Wind Dir Waves Ship Positions

Kamikawa Maru

Last reported at 2014-Dec-16 12:17 UTC. Time now 2014-Dec-20 19:29 UTC.
Position N 35°04' E 139°44'.

Length 162 m; draft 6.8 m.

Type: Cargo ship. MMSI: 431101012.

Date/timePositionNaut miles runAvg speedWind from/ knotsBaromVisibWave heightAir tempDewpointWater temp
2014-Dec-16 12:17N 35°04' E 139°44'1216.5
2014-Dec-16 11:33N 35°16' E 139°46'1312.7
2014-Dec-16 10:34N 35°28' E 139°49'1010.0
2014-Dec-16 09:32N 35°38' E 139°46'2 0.2
2014-Dec-15 23:21N 35°36' E 139°46'1013.3
2014-Dec-15 22:34N 35°26' E 139°48'1111.3
2014-Dec-15 21:33N 35°15' E 139°47'8 0.2
2014-Dec-14 07:33N 35°08' E 139°43'1313.4
2014-Dec-14 06:33N 35°21' E 139°42'1515.1
2014-Dec-14 05:32N 35°36' E 139°47'3 0.8
2014-Dec-14 02:13N 35°38' E 139°46'0 0.0
2014-Dec-13 23:33N 35°38' E 139°46'1111.4
2014-Dec-13 22:33N 35°28' E 139°51'  
2014-Dec-09 12:30N 35°06' E 139°44'1314.2
2014-Dec-09 11:33N 35°19' E 139°43'1414.2
2014-Dec-09 10:34N 35°31' E 139°52'9 0.8
2014-Dec-08 23:29N 35°38' E 139°46'1111.8
2014-Dec-08 22:34N 35°27' E 139°50'1211.8
2014-Dec-08 21:33N 35°16' E 139°46'12 0.3
2014-Dec-07 08:31N 35°05' E 139°40'1414.2
2014-Dec-07 07:33N 35°18' E 139°44'1615.7
2014-Dec-07 06:33N 35°33' E 139°51'6 0.9
2014-Dec-06 23:32N 35°38' E 139°46'1111.7
2014-Dec-06 22:33N 35°27' E 139°50'1211.5
2014-Dec-06 21:33N 35°16' E 139°47'1615.9
2014-Dec-06 20:32N 34°60' E 139°43'  
Track history (hours):
 
Tides and Currents Weather Stations Pressure Air Temp Water Temp Dewpoint Dewpoint Depression Visibility Wind Speed Wind Dir Waves Ship Positions

Kamikawa Maru

Last reported at 2014-Dec-16 12:17 UTC. Time now 2014-Dec-20 19:29 UTC.
Position N 35°04' E 139°44'.

Length 162 m; draft 6.8 m.

Type: Cargo ship. MMSI: 431101012.

Date/timePositionNaut miles runAvg speedWind from/ knotsBaromVisibWave heightAir tempDewpointWater temp
2014-Dec-16 12:17N 35°04' E 139°44'1216.5
2014-Dec-16 11:33N 35°16' E 139°46'1312.7
2014-Dec-16 10:34N 35°28' E 139°49'1010.0
2014-Dec-16 09:32N 35°38' E 139°46'2 0.2
2014-Dec-15 23:21N 35°36' E 139°46'1013.3
2014-Dec-15 22:34N 35°26' E 139°48'1111.3
2014-Dec-15 21:33N 35°15' E 139°47'8 0.2
2014-Dec-14 07:33N 35°08' E 139°43'1313.4
2014-Dec-14 06:33N 35°21' E 139°42'1515.1
2014-Dec-14 05:32N 35°36' E 139°47'3 0.8
2014-Dec-14 02:13N 35°38' E 139°46'0 0.0
2014-Dec-13 23:33N 35°38' E 139°46'1111.4
2014-Dec-13 22:33N 35°28' E 139°51'  
2014-Dec-09 12:30N 35°06' E 139°44'1314.2
2014-Dec-09 11:33N 35°19' E 139°43'1414.2
2014-Dec-09 10:34N 35°31' E 139°52'9 0.8
2014-Dec-08 23:29N 35°38' E 139°46'1111.8
2014-Dec-08 22:34N 35°27' E 139°50'1211.8
2014-Dec-08 21:33N 35°16' E 139°46'12 0.3
2014-Dec-07 08:31N 35°05' E 139°40'1414.2
2014-Dec-07 07:33N 35°18' E 139°44'1615.7
2014-Dec-07 06:33N 35°33' E 139°51'6 0.9
2014-Dec-06 23:32N 35°38' E 139°46'1111.7
2014-Dec-06 22:33N 35°27' E 139°50'1211.5
2014-Dec-06 21:33N 35°16' E 139°47'1615.9
2014-Dec-06 20:32N 34°60' E 139°43'  

Dump ship's entire track history